Time;durP1;ratioP1;P1;durP2;ratioP2;P2;SDS_P1;SDS_P2;PMS_P1;PMS_P2;Temp;Humidity;BMP_temperature;BMP_pressure;BME280_temperature;BME280_humidity;BME280_pressure;Samples;Min_cycle;Max_cycle;Signal;HPM_P1;HPM_P2
2023/07/23 00:01:47;;;;;;;9.68;7.20;;;;;;;29.59;56.06;100903.63;5033248;28;20017;-86
2023/07/23 00:04:13;;;;;;;7.65;6.85;;;;;;;29.69;56.41;100920.44;5034422;28;20064;-86
2023/07/23 00:06:41;;;;;;;8.15;7.35;;;;;;;29.77;56.29;100929.28;5034162;28;20398;-86
2023/07/23 00:09:06;;;;;;;8.20;7.43;;;;;;;29.73;56.35;100915.91;5034646;28;20483;-85
2023/07/23 00:11:33;;;;;;;7.60;6.80;;;;;;;29.74;56.32;100906.91;5033224;28;20027;-86
2023/07/23 00:14:40;;;;;;;8.68;7.22;;;;;;;29.40;56.19;100849.34;5032942;28;20021;-86
2023/07/23 00:17:11;;;;;;;8.23;6.93;;;;;;;29.80;56.30;100925.59;5034243;28;20060;-86
2023/07/23 00:19:46;;;;;;;8.73;7.40;;;;;;;29.75;56.25;100923.03;5033335;28;20268;-86
2023/07/23 00:22:17;;;;;;;8.60;7.00;;;;;;;29.69;56.41;100915.06;5016621;28;20025;-86
2023/07/23 00:24:46;;;;;;;8.02;7.20;;;;;;;29.72;56.32;100911.44;5033233;28;20022;-86
2023/07/23 00:27:15;;;;;;;8.88;7.53;;;;;;;29.28;56.28;100833.47;5031511;28;20037;-86
2023/07/23 00:29:41;;;;;;;8.90;6.85;;;;;;;29.39;56.17;100839.50;5017021;28;20025;-86
2023/07/23 00:32:07;;;;;;;8.25;7.45;;;;;;;29.69;55.92;100895.34;5032523;28;20031;-85
2023/07/23 00:34:47;;;;;;;7.75;6.95;;;;;;;29.49;56.32;100885.94;5012276;28;20461;-86
2023/07/23 00:37:21;;;;;;;7.85;7.05;;;;;;;29.31;56.32;100895.28;5024295;28;20461;-85
2023/07/23 00:39:56;;;;;;;8.75;7.00;;;;;;;29.75;56.39;101002.91;4999429;28;20030;-86
2023/07/23 00:42:21;;;;;;;8.07;6.88;;;;;;;29.71;56.31;101020.06;5015034;28;20022;-86
2023/07/23 00:44:47;;;;;;;9.82;7.35;;;;;;;29.66;56.22;101038.97;5032253;28;20108;-85
2023/07/23 00:47:19;;;;;;;9.73;7.40;;;;;;;29.48;56.47;101047.41;5032000;28;20021;-88
2023/07/23 00:49:46;;;;;;;8.57;7.47;;;;;;;29.70;56.68;101102.63;5014615;28;20521;-85
2023/07/23 00:52:13;;;;;;;9.35;7.15;;;;;;;29.35;56.56;101063.78;5016766;28;20074;-85
2023/07/23 00:54:38;;;;;;;10.13;7.57;;;;;;;29.70;56.50;101112.47;5003924;28;20021;-86
2023/07/23 00:57:26;;;;;;;8.13;6.47;;;;;;;29.74;56.45;101117.78;5039206;28;20591;-86
2023/07/23 00:59:58;;;;;;;9.10;7.38;;;;;;;29.57;56.60;101115.41;5038211;28;20021;-87
2023/07/23 01:02:26;;;;;;;10.07;7.47;;;;;;;29.66;56.29;101129.59;5004184;28;20116;-86
2023/07/23 01:04:53;;;;;;;12.48;7.32;;;;;;;29.36;56.57;101080.84;5024457;28;20052;-87
2023/07/23 01:07:19;;;;;;;9.10;7.03;;;;;;;29.71;56.28;101147.44;5020965;28;20056;-86
2023/07/23 01:09:46;;;;;;;11.48;7.70;;;;;;;29.70;56.39;101178.00;4995007;28;20376;-87
2023/07/23 01:12:14;;;;;;;10.30;7.32;;;;;;;29.59;56.05;101204.16;5010837;28;20022;-86
2023/07/23 01:14:40;;;;;;;10.70;7.32;;;;;;;29.52;56.40;101206.09;4999704;28;20091;-87
2023/07/23 01:17:07;;;;;;;12.20;7.03;;;;;;;29.32;56.08;101201.06;4997780;28;20755;-86
2023/07/23 01:19:34;;;;;;;11.20;7.05;;;;;;;29.55;55.69;101262.56;4987853;28;20478;-85
2023/07/23 01:22:00;;;;;;;10.73;6.57;;;;;;;29.50;56.58;101271.63;5013226;28;20051;-85
2023/07/23 01:24:26;;;;;;;13.27;6.40;;;;;;;29.66;55.78;101302.75;5007748;28;20029;-87
2023/07/23 01:26:51;;;;;;;13.38;6.82;;;;;;;29.47;56.68;101279.75;5010724;28;20033;-87
2023/07/23 01:29:20;;;;;;;14.65;6.57;;;;;;;29.65;56.74;101303.66;5016644;28;20032;-87
2023/07/23 01:31:45;;;;;;;10.93;6.50;;;;;;;29.57;57.19;101292.13;5016488;28;20025;-85
2023/07/23 01:34:17;;;;;;;12.35;6.78;;;;;;;29.37;56.77;101239.53;5016214;28;20037;-86
2023/07/23 01:36:46;;;;;;;13.57;6.82;;;;;;;29.55;56.89;101270.63;5017194;28;20482;-88
2023/07/23 01:39:18;;;;;;;16.58;6.60;;;;;;;29.16;57.01;101199.53;5017381;28;20195;-86
2023/07/23 01:41:44;;;;;;;12.65;6.63;;;;;;;29.38;56.90;101235.94;5035094;28;20029;-86
2023/07/23 01:44:11;;;;;;;11.27;6.53;;;;;;;29.25;56.60;101214.63;5034719;28;20509;-86
2023/07/23 01:46:36;;;;;;;11.38;6.55;;;;;;;29.57;56.97;101276.88;5024761;28;20546;-86
2023/07/23 01:49:11;;;;;;;12.35;6.80;;;;;;;29.28;56.64;101225.34;5017224;28;20056;-86
2023/07/23 01:51:36;;;;;;;11.35;6.28;;;;;;;29.33;56.68;101221.66;5036072;28;20110;-88
2023/07/23 01:54:02;;;;;;;10.27;6.50;;;;;;;29.45;56.63;101231.34;5034562;28;20024;-86
2023/07/23 01:56:31;;;;;;;9.10;6.55;;;;;;;29.47;56.37;101220.56;5053772;28;20033;-87
2023/07/23 01:58:57;;;;;;;13.30;6.90;;;;;;;29.41;56.26;101189.25;5036345;28;20024;-86
2023/07/23 02:01:35;;;;;;;10.63;7.07;;;;;;;29.51;56.41;101182.78;5034786;28;20505;-86
2023/07/23 02:04:01;;;;;;;10.43;6.45;;;;;;;29.18;56.51;101100.88;5015871;28;20384;-85
2023/07/23 02:06:27;;;;;;;14.45;7.07;;;;;;;29.31;56.64;101093.47;5052360;28;20482;-84
2023/07/23 02:08:52;;;;;;;12.77;7.03;;;;;;;29.41;56.36;101087.00;5033365;28;20029;-84
2023/07/23 02:11:18;;;;;;;10.27;6.97;;;;;;;29.55;56.18;101114.53;5052407;28;20040;-84
2023/07/23 02:13:44;;;;;;;9.85;6.60;;;;;;;29.46;56.49;101117.38;5051904;28;20113;-85
2023/07/23 02:16:19;;;;;;;11.43;6.15;;;;;;;29.61;56.26;101116.19;5052298;28;20532;-86
2023/07/23 02:18:45;;;;;;;13.38;6.70;;;;;;;29.37;56.13;101080.78;5031885;28;20108;-86
2023/07/23 02:21:10;;;;;;;11.82;6.55;;;;;;;29.38;56.45;101101.41;5052100;28;20075;-85
2023/07/23 02:23:36;;;;;;;13.80;6.57;;;;;;;29.38;56.67;101122.00;5034258;28;20561;-86
2023/07/23 02:26:02;;;;;;;11.23;6.50;;;;;;;29.30;56.66;101149.09;5051851;28;20493;-85
2023/07/23 02:28:28;;;;;;;8.82;5.97;;;;;;;29.45;56.92;101207.13;5051464;28;20383;-85
2023/07/23 02:30:58;;;;;;;10.95;6.13;;;;;;;29.29;56.92;101181.38;5034116;28;20414;-85
2023/07/23 02:33:36;;;;;;;11.43;6.85;;;;;;;29.40;56.78;101187.44;5030093;28;20021;-86
2023/07/23 02:36:02;;;;;;;10.80;6.40;;;;;;;29.54;56.87;101216.81;5051698;28;20032;-85
2023/07/23 02:38:28;;;;;;;11.00;5.75;;;;;;;29.18;56.62;101142.09;5038309;28;20107;-85
2023/07/23 02:40:57;;;;;;;13.95;6.60;;;;;;;29.52;56.45;101186.34;5018848;28;20105;-84
2023/07/23 02:43:23;;;;;;;8.60;5.75;;;;;;;29.27;56.33;101159.88;5014126;28;20562;-85
2023/07/23 02:46:01;;;;;;;12.25;6.45;;;;;;;29.50;56.83;101191.75;4997910;28;20033;-85
2023/07/23 02:48:31;;;;;;;9.65;6.03;;;;;;;29.26;56.70;101147.34;5031469;28;20029;-84
2023/07/23 02:50:57;;;;;;;13.10;6.82;;;;;;;29.26;56.68;101166.19;5028647;28;20037;-83
2023/07/23 02:53:23;;;;;;;15.20;6.32;;;;;;;29.49;56.75;101202.56;5013790;28;20544;-83
2023/07/23 02:55:48;;;;;;;10.10;6.22;;;;;;;29.31;56.73;101168.78;5031889;28;20479;-83
2023/07/23 02:58:14;;;;;;;12.65;5.97;;;;;;;29.38;56.78;101165.06;5031563;28;20052;-84
2023/07/23 03:00:44;;;;;;;11.82;6.07;;;;;;;29.36;56.86;101156.16;4998279;28;20091;-85
2023/07/23 03:03:10;;;;;;;7.85;5.45;;;;;;;29.49;56.70;101154.13;5031574;28;20029;-84
2023/07/23 03:05:36;;;;;;;11.90;6.15;;;;;;;29.35;56.68;101089.81;5014669;28;20052;-86
2023/07/23 03:08:02;;;;;;;12.82;6.25;;;;;;;29.34;56.96;101029.75;5031048;28;20025;-85
2023/07/23 03:10:29;;;;;;;10.25;5.95;;;;;;;29.42;56.97;100997.28;5014060;28;20148;-85
2023/07/23 03:12:55;;;;;;;10.65;5.93;;;;;;;29.47;56.75;100968.50;5031698;28;20043;-85
2023/07/23 03:15:21;;;;;;;12.60;6.15;;;;;;;29.43;56.84;100958.72;5013723;28;20112;-86
2023/07/23 03:17:47;;;;;;;11.13;5.90;;;;;;;29.23;56.83;100937.59;5031562;28;20018;-86
2023/07/23 03:20:14;;;;;;;13.23;6.32;;;;;;;29.25;56.53;100951.00;5013413;28;20041;-86
2023/07/23 03:22:40;;;;;;;11.68;5.43;;;;;;;29.17;56.88;100978.09;5017666;28;20033;-85
2023/07/23 03:25:06;;;;;;;10.70;5.85;;;;;;;29.23;57.00;101004.81;5031483;28;20159;-86
2023/07/23 03:27:31;;;;;;;11.35;5.95;;;;;;;29.02;57.21;100979.22;4997480;28;20025;-86
2023/07/23 03:29:57;;;;;;;12.57;5.93;;;;;;;29.34;56.92;101034.25;5031394;28;20056;-86
2023/07/23 03:32:23;;;;;;;10.85;5.82;;;;;;;29.46;56.93;101081.53;5013645;28;20040;-86
2023/07/23 03:34:49;;;;;;;11.43;5.88;;;;;;;29.16;57.16;101049.78;5013639;28;20510;-86
2023/07/23 03:37:14;;;;;;;10.35;6.07;;;;;;;29.04;57.10;101049.97;5036024;28;20045;-86
2023/07/23 03:39:40;;;;;;;11.77;6.15;;;;;;;29.40;56.90;101121.09;5016884;28;20033;-86
2023/07/23 03:42:08;;;;;;;11.95;6.32;;;;;;;29.36;57.00;101126.56;5050559;28;20017;-86
2023/07/23 03:44:34;;;;;;;13.00;6.20;;;;;;;29.40;57.30;101139.03;5051145;28;20021;-86
2023/07/23 03:47:11;;;;;;;13.70;6.20;;;;;;;29.39;57.26;101134.56;5013362;28;20505;-86
2023/07/23 03:49:37;;;;;;;13.48;6.50;;;;;;;29.40;57.56;101137.25;5025924;28;20032;-86
2023/07/23 03:52:04;;;;;;;10.38;5.80;;;;;;;29.36;57.64;101127.44;5051039;28;20079;-86
2023/07/23 03:54:31;;;;;;;10.75;5.80;;;;;;;29.34;57.62;101131.97;5049763;28;20478;-85
2023/07/23 03:56:56;;;;;;;10.85;5.78;;;;;;;29.34;57.62;101126.59;5033071;28;20440;-85
2023/07/23 03:59:22;;;;;;;10.95;5.90;;;;;;;29.38;57.42;101149.84;5050795;28;20032;-86
2023/07/23 04:01:47;;;;;;;11.68;5.93;;;;;;;29.33;57.30;101142.75;5031657;28;20450;-86
2023/07/23 04:04:13;;;;;;;8.50;5.95;;;;;;;29.19;57.27;101113.41;5037345;28;20081;-85
2023/07/23 04:06:39;;;;;;;12.57;6.25;;;;;;;29.22;57.16;101121.41;5050907;28;20302;-86
2023/07/23 04:09:04;;;;;;;9.13;6.25;;;;;;;29.22;57.25;101137.56;5050451;28;20060;-85
2023/07/23 04:11:30;;;;;;;10.30;5.65;;;;;;;29.30;56.98;101167.91;5029412;28;20482;-85
2023/07/23 04:13:58;;;;;;;12.95;6.03;;;;;;;29.37;57.16;101195.59;5043366;28;20087;-86
2023/07/23 04:16:39;;;;;;;10.75;5.30;;;;;;;29.36;57.12;101201.91;5012830;28;20120;-87
2023/07/23 04:19:05;;;;;;;10.95;5.80;;;;;;;28.93;57.11;101122.75;5018451;28;20039;-85
2023/07/23 04:21:31;;;;;;;10.40;5.72;;;;;;;29.34;57.07;101176.81;5032113;28;20032;-87
2023/07/23 04:23:57;;;;;;;11.73;6.10;;;;;;;28.85;57.09;101078.09;5050131;28;20048;-86
2023/07/23 04:26:31;;;;;;;8.48;5.47;;;;;;;29.31;57.17;101175.06;5031997;28;20028;-84
2023/07/23 04:28:57;;;;;;;9.85;6.00;;;;;;;29.34;57.16;101190.28;5049682;28;20025;-87
2023/07/23 04:31:38;;;;;;;10.15;5.93;;;;;;;28.86;56.94;101109.47;5050355;28;20061;-87
2023/07/23 04:34:08;;;;;;;10.18;5.43;;;;;;;29.20;56.83;101160.91;5036789;28;20044;-85
2023/07/23 04:36:57;;;;;;;9.77;5.45;;;;;;;29.31;56.83;101191.19;5022805;28;20052;-85
2023/07/23 04:39:29;;;;;;;10.80;5.38;;;;;;;29.00;57.01;101140.59;5021041;28;20053;-85
2023/07/23 04:42:00;;;;;;;12.15;5.60;;;;;;;28.96;57.09;101127.22;5033528;28;20479;-85
2023/07/23 04:44:26;;;;;;;11.48;5.80;;;;;;;29.20;57.47;101174.34;5015105;28;20053;-84
2023/07/23 04:46:52;;;;;;;14.88;6.43;;;;;;;29.21;57.32;101173.44;5028618;28;20134;-86
2023/07/23 04:49:17;;;;;;;11.57;6.28;;;;;;;29.14;57.54;101175.34;5031243;28;20155;-84
2023/07/23 04:51:43;;;;;;;14.30;5.85;;;;;;;29.22;57.07;101202.13;5029302;28;20117;-83
2023/07/23 04:54:08;;;;;;;10.70;5.25;;;;;;;29.20;57.81;101177.94;5029340;28;20961;-83
2023/07/23 04:56:35;;;;;;;10.55;5.55;;;;;;;29.25;57.70;101193.09;5008407;28;20504;-85
2023/07/23 04:59:00;;;;;;;9.73;5.57;;;;;;;29.24;57.81;101186.84;5025364;28;20096;-84
2023/07/23 05:01:26;;;;;;;11.05;5.90;;;;;;;29.24;57.92;101181.47;5025541;28;20035;-83
2023/07/23 05:03:51;;;;;;;10.52;6.00;;;;;;;29.22;57.80;101203.00;5026774;28;20037;-85
2023/07/23 05:06:17;;;;;;;13.43;6.28;;;;;;;29.21;58.11;101193.16;5027960;28;20487;-84
2023/07/23 05:08:43;;;;;;;13.10;6.00;;;;;;;29.18;57.90;101173.50;5030139;28;20021;-85
2023/07/23 05:11:08;;;;;;;11.07;5.40;;;;;;;29.21;57.64;101178.81;5029837;28;20033;-85
2023/07/23 05:13:37;;;;;;;9.23;6.07;;;;;;;29.22;57.07;101191.34;5023223;28;20390;-85
2023/07/23 05:16:03;;;;;;;9.15;5.55;;;;;;;29.08;56.64;101164.63;5027382;28;20025;-85
2023/07/23 05:18:29;;;;;;;10.25;5.97;;;;;;;29.22;56.79;101194.94;5028810;28;20395;-86
2023/07/23 05:20:55;;;;;;;13.70;6.03;;;;;;;29.04;57.10;101165.59;5030708;28;20060;-85
2023/07/23 05:23:22;;;;;;;13.18;5.90;;;;;;;29.23;57.50;101201.19;5026570;28;20067;-86
2023/07/23 05:25:47;;;;;;;11.00;5.72;;;;;;;29.24;57.02;101194.91;5022536;28;20040;-86
2023/07/23 05:28:13;;;;;;;10.88;5.47;;;;;;;29.21;57.11;101190.47;5021620;28;20018;-84
2023/07/23 05:30:39;;;;;;;9.70;5.30;;;;;;;29.22;57.24;101202.13;5026860;28;20487;-84
2023/07/23 05:33:05;;;;;;;8.38;5.40;;;;;;;29.19;57.08;101186.03;5030151;28;20083;-84
2023/07/23 05:35:30;;;;;;;10.05;5.68;;;;;;;29.21;57.33;101186.88;5026851;28;20021;-84
2023/07/23 05:37:56;;;;;;;12.52;5.60;;;;;;;29.09;57.54;101168.25;5034674;28;20063;-84
2023/07/23 05:40:23;;;;;;;12.60;5.90;;;;;;;29.19;57.09;101189.63;5032622;28;20040;-84
2023/07/23 05:42:53;;;;;;;11.98;6.30;;;;;;;28.90;56.97;101132.69;5034166;28;20044;-83
2023/07/23 05:45:20;;;;;;;11.63;5.72;;;;;;;29.10;57.04;101161.97;5034164;28;20024;-85
2023/07/23 05:47:46;;;;;;;12.50;5.72;;;;;;;29.25;56.71;101190.41;5034205;28;20029;-83
2023/07/23 05:50:12;;;;;;;9.32;5.65;;;;;;;29.20;57.05;101190.50;5033796;28;20590;-84
2023/07/23 05:52:37;;;;;;;12.50;6.15;;;;;;;29.00;56.46;101156.72;5050514;28;20520;-83
2023/07/23 05:55:03;;;;;;;13.57;5.72;;;;;;;28.98;56.96;101153.16;5052411;28;20764;-83
2023/07/23 05:57:29;;;;;;;10.48;5.10;;;;;;;29.12;57.01;101174.47;5053202;28;20103;-84
2023/07/23 05:59:56;;;;;;;11.15;5.60;;;;;;;28.98;56.30;101150.47;5032487;28;20136;-85
2023/07/23 06:02:22;;;;;;;8.30;5.00;;;;;;;29.16;57.02;101183.38;5051733;28;20025;-85
2023/07/23 06:04:49;;;;;;;8.57;4.80;;;;;;;29.12;57.06;101179.84;5033634;28;20031;-84
2023/07/23 06:07:15;;;;;;;8.35;5.00;;;;;;;29.04;57.17;101146.78;5051719;28;20036;-84
2023/07/23 06:09:41;;;;;;;9.38;5.43;;;;;;;29.19;56.55;101175.28;5050556;28;20037;-84
2023/07/23 06:12:06;;;;;;;11.63;5.30;;;;;;;28.87;56.70;101116.59;5051793;28;20025;-84
2023/07/23 06:14:32;;;;;;;8.50;4.85;;;;;;;29.14;57.13;101175.34;5032191;28;20037;-85
2023/07/23 06:16:58;;;;;;;11.35;5.53;;;;;;;29.00;55.97;101153.16;5050204;28;20054;-84
2023/07/23 06:19:23;;;;;;;10.43;5.05;;;;;;;28.93;56.67;101151.44;5051217;28;20036;-84
2023/07/23 06:22:09;;;;;;;8.93;5.78;;;;;;;29.13;56.66;101189.72;5042349;28;20025;-83
2023/07/23 06:24:34;;;;;;;9.27;5.00;;;;;;;28.96;57.21;101156.81;5031123;28;20041;-84
2023/07/23 06:27:00;;;;;;;8.45;5.13;;;;;;;29.10;56.52;101186.16;5051356;28;20032;-83
2023/07/23 06:29:26;;;;;;;8.20;5.30;;;;;;;29.12;57.57;101189.72;5033246;28;20025;-85
2023/07/23 06:32:10;;;;;;;8.40;5.30;;;;;;;29.11;56.57;101185.28;5033602;28;20501;-84
2023/07/23 06:34:46;;;;;;;11.13;5.30;;;;;;;29.01;56.28;101177.31;5029036;28;20017;-84
2023/07/23 06:37:12;;;;;;;8.63;5.25;;;;;;;29.08;56.21;101187.97;5029280;28;20074;-85
2023/07/23 06:39:43;;;;;;;11.65;5.30;;;;;;;28.79;56.12;101135.56;5018123;28;20021;-86
2023/07/23 06:42:08;;;;;;;8.55;4.95;;;;;;;29.07;56.65;101178.13;5033585;28;20025;-84
2023/07/23 06:44:34;;;;;;;11.32;5.57;;;;;;;28.96;56.67;101155.00;5033141;28;20564;-82
2023/07/23 06:47:00;;;;;;;8.52;4.90;;;;;;;28.83;56.08;101146.22;5021528;28;20029;-85
2023/07/23 06:49:30;;;;;;;9.38;5.40;;;;;;;28.86;55.97;101150.66;5033323;28;20054;-84
2023/07/23 06:51:55;;;;;;;8.77;4.80;;;;;;;28.98;55.97;101174.69;5050915;28;20032;-84
2023/07/23 06:54:32;;;;;;;11.38;5.45;;;;;;;29.05;56.26;101182.66;5032977;28;20025;-84
2023/07/23 06:56:58;;;;;;;11.32;5.13;;;;;;;28.97;55.93;101166.63;5032988;28;20025;-81
2023/07/23 06:59:24;;;;;;;7.90;4.80;;;;;;;29.08;56.00;101178.09;5032877;28;20033;-82
2023/07/23 07:01:50;;;;;;;11.25;5.22;;;;;;;29.06;55.99;101176.34;5049670;28;20549;-84
2023/07/23 07:04:17;;;;;;;10.68;5.60;;;;;;;28.82;55.91;101140.88;5048938;28;20055;-87
2023/07/23 07:06:43;;;;;;;8.40;5.03;;;;;;;28.65;56.09;101113.38;5043677;28;20020;-85
2023/07/23 07:09:11;;;;;;;7.68;5.20;;;;;;;28.82;55.96;101144.44;5045952;28;20021;-85
2023/07/23 07:11:37;;;;;;;6.75;4.93;;;;;;;28.82;56.01;101143.56;5033316;28;20031;-85
2023/07/23 07:14:04;;;;;;;7.85;5.15;;;;;;;28.79;55.97;101133.75;5032674;28;20021;-84
2023/07/23 07:16:29;;;;;;;9.52;5.05;;;;;;;28.77;56.11;101132.00;5029756;28;20032;-85
2023/07/23 07:18:55;;;;;;;7.43;5.25;;;;;;;28.90;55.89;101157.78;5028176;28;20029;-85
2023/07/23 07:21:21;;;;;;;8.23;5.10;;;;;;;28.83;56.21;101146.22;5032177;28;20500;-83
2023/07/23 07:23:47;;;;;;;8.88;5.28;;;;;;;28.97;56.08;101169.31;5031240;28;20473;-86
2023/07/23 07:26:12;;;;;;;9.93;5.35;;;;;;;28.94;56.43;101164.88;5014680;28;20025;-85
2023/07/23 07:28:38;;;;;;;8.65;5.03;;;;;;;29.06;55.94;101179.03;5049253;28;20095;-86
2023/07/23 07:31:04;;;;;;;11.65;5.13;;;;;;;28.77;56.31;101132.88;5029098;28;20148;-86
2023/07/23 07:33:30;;;;;;;10.40;5.38;;;;;;;29.01;56.12;101176.41;5050312;28;20663;-86
2023/07/23 07:35:57;;;;;;;9.45;5.30;;;;;;;28.78;56.05;101144.50;5033721;28;20024;-87
2023/07/23 07:38:23;;;;;;;9.75;5.82;;;;;;;28.90;56.23;101155.09;5035282;28;20041;-86
2023/07/23 07:40:50;;;;;;;10.75;5.60;;;;;;;28.73;55.99;101122.22;5037847;28;20025;-89
2023/07/23 07:43:16;;;;;;;11.05;5.38;;;;;;;28.95;56.39;101163.06;5035531;28;20031;-85
2023/07/23 07:45:41;;;;;;;10.13;5.45;;;;;;;29.07;56.11;101189.78;5048756;28;20021;-84
2023/07/23 07:48:09;;;;;;;10.30;5.60;;;;;;;29.03;56.13;101171.91;5047135;28;20532;-84
2023/07/23 07:50:34;;;;;;;10.18;5.47;;;;;;;28.87;55.94;101146.16;5046968;28;20082;-83
2023/07/23 07:53:00;;;;;;;8.20;5.68;;;;;;;28.96;56.05;101164.88;5046851;28;20033;-86
2023/07/23 07:55:26;;;;;;;10.98;5.22;;;;;;;29.02;55.83;101176.41;5031991;28;20036;-86
2023/07/23 07:57:51;;;;;;;9.00;5.60;;;;;;;28.76;55.96;101128.41;5050925;28;20566;-84
2023/07/23 08:00:18;;;;;;;10.80;5.38;;;;;;;29.13;55.96;101189.72;5032885;28;20032;-84
2023/07/23 08:02:44;;;;;;;11.13;5.40;;;;;;;29.10;55.74;101178.97;5016120;28;20044;-84
2023/07/23 08:05:10;;;;;;;11.95;5.50;;;;;;;29.13;55.96;101186.13;5031590;28;20410;-85
2023/07/23 08:07:35;;;;;;;8.38;5.50;;;;;;;29.16;55.69;101192.34;5035517;28;20028;-84
2023/07/23 08:10:01;;;;;;;8.93;5.20;;;;;;;29.14;56.02;101186.09;5054492;28;20033;-84
2023/07/23 08:12:28;;;;;;;9.00;5.55;;;;;;;29.08;55.69;101178.09;5054779;28;20052;-85
2023/07/23 08:14:55;;;;;;;7.40;5.13;;;;;;;29.16;55.89;101186.97;5036448;28;20035;-84
2023/07/23 08:17:21;;;;;;;8.63;5.25;;;;;;;29.14;56.00;101186.09;5054879;28;20029;-84
2023/07/23 08:19:47;;;;;;;7.75;5.22;;;;;;;29.17;55.95;101187.88;5054351;28;20033;-85
2023/07/23 08:22:13;;;;;;;10.73;5.38;;;;;;;29.18;55.50;101184.25;5051749;28;20071;-85
2023/07/23 08:24:39;;;;;;;8.25;5.25;;;;;;;29.19;55.72;101184.22;5054078;28;20043;-85
2023/07/23 08:27:06;;;;;;;9.73;5.75;;;;;;;29.15;55.54;101170.88;5054292;28;20039;-85
2023/07/23 08:29:37;;;;;;;7.93;5.22;;;;;;;29.23;55.80;101185.03;5031557;28;20178;-85
2023/07/23 08:32:02;;;;;;;8.45;5.00;;;;;;;29.17;55.42;101180.69;5036258;28;20064;-85
2023/07/23 08:34:28;;;;;;;8.80;5.15;;;;;;;29.17;55.73;101188.75;5053919;28;20025;-86
2023/07/23 08:36:54;;;;;;;8.63;5.53;;;;;;;29.18;55.59;101181.56;5035368;28;20447;-85
2023/07/23 08:39:21;;;;;;;8.73;4.90;;;;;;;29.22;55.56;101177.91;5053866;28;20199;-85
2023/07/23 08:42:05;;;;;;;10.85;5.65;;;;;;;29.21;55.97;101189.56;5035021;28;20025;-84
2023/07/23 08:44:52;;;;;;;9.90;5.55;;;;;;;29.26;55.54;101182.31;5053697;28;20714;-85
2023/07/23 08:47:21;;;;;;;7.93;5.68;;;;;;;29.20;55.44;101177.94;5051500;28;20056;-85
2023/07/23 08:49:47;;;;;;;9.73;5.68;;;;;;;29.27;55.55;101188.59;5053478;28;20029;-86
2023/07/23 08:52:13;;;;;;;10.23;5.40;;;;;;;29.22;55.54;101181.47;5053092;28;20029;-85
2023/07/23 08:54:42;;;;;;;9.20;5.90;;;;;;;29.25;55.36;101185.03;5053317;28;20033;-86
2023/07/23 08:57:09;;;;;;;8.55;5.78;;;;;;;29.30;55.39;101191.25;5018445;28;20029;-84
2023/07/23 08:59:35;;;;;;;8.38;5.22;;;;;;;29.29;55.31;101189.44;5052493;28;20637;-85
2023/07/23 09:02:02;;;;;;;8.57;5.75;;;;;;;29.26;55.36;101189.50;5035781;28;20059;-86
2023/07/23 09:04:28;;;;;;;10.57;6.00;;;;;;;29.34;54.99;101201.03;5053822;28;20104;-86
2023/07/23 09:06:56;;;;;;;10.40;5.60;;;;;;;29.35;55.02;101198.31;5031417;28;20127;-85
2023/07/23 09:09:22;;;;;;;9.68;5.90;;;;;;;29.26;55.01;101193.09;5035414;28;20059;-86
2023/07/23 09:11:48;;;;;;;9.90;5.93;;;;;;;29.32;55.08;101202.88;5053126;28;20063;-86
2023/07/23 09:14:15;;;;;;;9.93;5.50;;;;;;;29.33;54.95;101205.50;5019776;28;20065;-85
2023/07/23 09:16:47;;;;;;;10.05;5.60;;;;;;;29.26;54.62;101193.09;5036720;28;20083;-86
2023/07/23 09:19:14;;;;;;;9.18;5.80;;;;;;;28.90;54.56;101130.88;5053155;28;20025;-86
2023/07/23 09:21:42;;;;;;;8.98;6.38;;;;;;;29.37;54.67;101209.03;5037279;28;20029;-85
2023/07/23 09:24:14;;;;;;;8.18;5.50;;;;;;;29.39;54.29;101212.59;5052196;28;20087;-86
2023/07/23 09:26:40;;;;;;;10.15;6.50;;;;;;;29.31;54.63;101210.03;5054139;28;20037;-86
2023/07/23 09:29:11;;;;;;;8.07;6.05;;;;;;;29.41;54.19;101211.66;5053175;28;20040;-84
2023/07/23 09:31:39;;;;;;;8.70;5.82;;;;;;;29.40;54.49;101208.97;5053116;28;20021;-85
2023/07/23 09:34:05;;;;;;;10.23;6.13;;;;;;;29.30;54.63;101208.25;5034965;28;20085;-85
2023/07/23 09:36:30;;;;;;;9.10;6.38;;;;;;;29.38;54.44;101213.50;5034671;28;20536;-85
2023/07/23 09:38:58;;;;;;;10.70;6.10;;;;;;;29.36;54.34;101220.72;5052185;28;20575;-84
2023/07/23 09:41:28;;;;;;;8.23;5.40;;;;;;;29.42;54.29;101210.75;5051607;28;20117;-84
2023/07/23 09:43:57;;;;;;;9.27;5.78;;;;;;;29.30;54.53;101197.50;5052418;28;20547;-86
2023/07/23 09:46:26;;;;;;;10.15;6.05;;;;;;;29.41;54.29;101210.78;5059095;28;20021;-86
2023/07/23 09:48:51;;;;;;;8.93;5.70;;;;;;;29.43;54.10;101212.50;5033542;28;20490;-84
2023/07/23 09:51:17;;;;;;;8.77;5.60;;;;;;;29.35;54.15;101205.50;5051079;28;20028;-84
2023/07/23 09:53:45;;;;;;;7.78;5.70;;;;;;;29.40;54.00;101215.28;5050677;28;20017;-84
2023/07/23 09:56:15;;;;;;;8.43;6.35;;;;;;;29.27;54.08;101183.22;5050891;28;20021;-83
2023/07/23 09:58:46;;;;;;;7.90;6.07;;;;;;;29.43;54.26;101207.13;5022779;28;20028;-85
2023/07/23 10:01:13;;;;;;;8.52;6.05;;;;;;;29.37;54.51;101191.09;5018929;28;20039;-85
2023/07/23 10:03:39;;;;;;;7.65;6.00;;;;;;;29.21;53.77;101179.72;5052662;28;20106;-85
2023/07/23 10:06:10;;;;;;;7.32;5.70;;;;;;;29.27;54.22;101169.75;5034634;28;20029;-85
2023/07/23 10:08:39;;;;;;;8.80;5.60;;;;;;;29.43;54.08;101208.94;5035550;28;20029;-86
2023/07/23 10:11:05;;;;;;;8.20;5.63;;;;;;;29.41;53.77;101197.31;5052489;28;20021;-85
2023/07/23 10:13:30;;;;;;;7.63;5.40;;;;;;;29.48;53.90;101198.97;5051976;28;20029;-84
2023/07/23 10:15:57;;;;;;;7.53;5.63;;;;;;;29.48;53.95;101201.66;5039110;28;20033;-85
2023/07/23 10:18:28;;;;;;;8.15;5.60;;;;;;;29.46;53.89;101200.81;5024479;28;20079;-85
2023/07/23 10:20:54;;;;;;;8.10;5.72;;;;;;;29.45;53.83;101203.53;5034984;28;20056;-86
2023/07/23 10:23:21;;;;;;;8.18;5.30;;;;;;;29.40;53.95;101190.13;5051684;28;20054;-85
2023/07/23 10:25:47;;;;;;;7.78;5.68;;;;;;;29.47;53.92;101212.47;5050538;28;20024;-85
2023/07/23 10:28:24;;;;;;;9.48;5.50;;;;;;;29.50;53.84;101210.59;5032819;28;20118;-85
2023/07/23 10:31:26;;;;;;;8.63;5.97;;;;;;;29.53;53.88;101212.38;5048330;28;20036;-84
2023/07/23 10:33:52;;;;;;;8.68;6.15;;;;;;;29.54;54.07;101220.41;5034518;28;20029;-85
2023/07/23 10:36:19;;;;;;;7.88;5.57;;;;;;;29.54;53.72;101217.72;5034655;28;20545;-86
2023/07/23 10:38:46;;;;;;;7.50;5.38;;;;;;;29.48;53.96;101192.72;5051841;28;20057;-85
2023/07/23 10:41:12;;;;;;;8.38;5.13;;;;;;;29.49;53.79;101194.50;5051896;28;20104;-87
2023/07/23 10:43:43;;;;;;;7.75;5.63;;;;;;;29.44;53.31;101194.56;5034064;28;20025;-86
2023/07/23 10:46:12;;;;;;;6.43;5.72;;;;;;;29.50;53.59;101199.84;5016142;28;20398;-85
2023/07/23 10:48:48;;;;;;;6.97;5.78;;;;;;;29.57;54.00;101206.00;5017368;28;20116;-85
2023/07/23 10:51:21;;;;;;;7.72;5.70;;;;;;;29.52;53.90;101198.00;5050450;28;20025;-87
2023/07/23 10:54:06;;;;;;;6.75;5.75;;;;;;;29.58;53.92;101215.84;5049076;28;20027;-87
2023/07/23 10:56:40;;;;;;;7.73;5.80;;;;;;;29.54;54.13;101208.75;5050040;28;20059;-87
2023/07/23 10:59:07;;;;;;;7.32;5.80;;;;;;;29.60;54.08;101219.41;5035871;28;20021;-86
2023/07/23 11:01:39;;;;;;;6.65;5.80;;;;;;;29.23;53.98;101142.94;5048914;28;20104;-86
2023/07/23 11:04:16;;;;;;;6.45;5.38;;;;;;;29.61;53.93;101216.69;5022531;28;20033;-86
2023/07/23 11:07:01;;;;;;;7.20;5.32;;;;;;;29.66;54.00;101221.13;5038876;28;20017;-86
2023/07/23 11:09:30;;;;;;;6.72;5.45;;;;;;;29.37;53.79;101160.63;5033021;28;20023;-86
2023/07/23 11:11:57;;;;;;;7.88;5.70;;;;;;;29.56;54.07;101194.34;5016974;28;20029;-86
2023/07/23 11:14:29;;;;;;;6.00;5.40;;;;;;;29.57;53.93;101193.44;5033125;28;20364;-87
2023/07/23 11:16:57;;;;;;;6.88;5.32;;;;;;;29.58;53.48;101218.56;5033426;28;20536;-86
2023/07/23 11:19:24;;;;;;;9.77;5.75;;;;;;;29.56;53.69;101204.22;5027205;28;20075;-87
2023/07/23 11:22:04;;;;;;;9.32;5.70;;;;;;;29.53;53.15;101193.53;5016783;28;20390;-86
2023/07/23 11:24:31;;;;;;;7.70;5.57;;;;;;;29.26;54.24;101160.81;5002105;28;20141;-87
2023/07/23 11:26:59;;;;;;;8.05;5.82;;;;;;;29.28;53.69;101156.28;5011182;28;20406;-86